sensor_id;sensor_type;location;lat;lon;timestamp;P1;durP1;ratioP1;P2;durP2;ratioP2
23714;SDS011;12036;50.858;4.472;2022-09-09T00:03:33;3.42;;;0.90;;
23714;SDS011;12036;50.858;4.472;2022-09-09T00:11:27;4.05;;;1.00;;
23714;SDS011;12036;50.858;4.472;2022-09-09T00:17:04;4.80;;;1.00;;
23714;SDS011;12036;50.858;4.472;2022-09-09T00:20:04;2.22;;;1.00;;
23714;SDS011;12036;50.858;4.472;2022-09-09T00:22:51;1.77;;;0.80;;
23714;SDS011;12036;50.858;4.472;2022-09-09T00:25:23;1.80;;;1.15;;
23714;SDS011;12036;50.858;4.472;2022-09-09T00:27:59;4.32;;;0.88;;
23714;SDS011;12036;50.858;4.472;2022-09-09T00:30:31;2.13;;;0.95;;
23714;SDS011;12036;50.858;4.472;2022-09-09T00:33:00;5.57;;;1.17;;
23714;SDS011;12036;50.858;4.472;2022-09-09T00:35:37;2.67;;;0.90;;
23714;SDS011;12036;50.858;4.472;2022-09-09T00:38:17;2.13;;;0.75;;
23714;SDS011;12036;50.858;4.472;2022-09-09T00:40:51;3.80;;;0.90;;
23714;SDS011;12036;50.858;4.472;2022-09-09T00:51:27;6.25;;;1.10;;
23714;SDS011;12036;50.858;4.472;2022-09-09T00:56:56;3.75;;;0.95;;
23714;SDS011;12036;50.858;4.472;2022-09-09T01:02:28;2.40;;;0.95;;
23714;SDS011;12036;50.858;4.472;2022-09-09T01:05:05;6.13;;;1.10;;
23714;SDS011;12036;50.858;4.472;2022-09-09T01:07:37;2.58;;;0.80;;
23714;SDS011;12036;50.858;4.472;2022-09-09T01:10:11;3.78;;;1.27;;
23714;SDS011;12036;50.858;4.472;2022-09-09T01:12:48;4.75;;;0.90;;
23714;SDS011;12036;50.858;4.472;2022-09-09T01:15:18;5.05;;;1.00;;
23714;SDS011;12036;50.858;4.472;2022-09-09T01:17:58;5.65;;;1.13;;
23714;SDS011;12036;50.858;4.472;2022-09-09T01:20:36;3.28;;;0.95;;
23714;SDS011;12036;50.858;4.472;2022-09-09T01:28:39;5.00;;;1.08;;
23714;SDS011;12036;50.858;4.472;2022-09-09T01:31:07;5.30;;;1.13;;
23714;SDS011;12036;50.858;4.472;2022-09-09T01:33:37;3.95;;;1.35;;
23714;SDS011;12036;50.858;4.472;2022-09-09T01:38:34;2.45;;;1.05;;
23714;SDS011;12036;50.858;4.472;2022-09-09T01:41:01;7.60;;;1.80;;
23714;SDS011;12036;50.858;4.472;2022-09-09T01:43:26;5.57;;;1.17;;
23714;SDS011;12036;50.858;4.472;2022-09-09T01:45:54;5.05;;;1.38;;
23714;SDS011;12036;50.858;4.472;2022-09-09T01:48:23;4.38;;;1.50;;
23714;SDS011;12036;50.858;4.472;2022-09-09T01:50:49;2.55;;;0.98;;
23714;SDS011;12036;50.858;4.472;2022-09-09T01:53:16;4.78;;;1.30;;
23714;SDS011;12036;50.858;4.472;2022-09-09T01:55:46;4.40;;;1.38;;
23714;SDS011;12036;50.858;4.472;2022-09-09T02:03:56;5.60;;;1.50;;
23714;SDS011;12036;50.858;4.472;2022-09-09T02:06:27;4.38;;;1.30;;
23714;SDS011;12036;50.858;4.472;2022-09-09T02:08:59;5.57;;;1.55;;
23714;SDS011;12036;50.858;4.472;2022-09-09T02:11:29;5.03;;;1.27;;
23714;SDS011;12036;50.858;4.472;2022-09-09T02:14:05;7.35;;;1.60;;
23714;SDS011;12036;50.858;4.472;2022-09-09T02:19:23;9.20;;;1.40;;
23714;SDS011;12036;50.858;4.472;2022-09-09T02:21:52;6.90;;;1.63;;
23714;SDS011;12036;50.858;4.472;2022-09-09T02:24:21;10.27;;;1.42;;
23714;SDS011;12036;50.858;4.472;2022-09-09T02:26:48;3.78;;;1.42;;
23714;SDS011;12036;50.858;4.472;2022-09-09T02:29:18;5.57;;;1.38;;
23714;SDS011;12036;50.858;4.472;2022-09-09T02:31:48;5.80;;;1.33;;
23714;SDS011;12036;50.858;4.472;2022-09-09T02:34:17;4.53;;;1.20;;
23714;SDS011;12036;50.858;4.472;2022-09-09T02:36:45;7.32;;;1.40;;
23714;SDS011;12036;50.858;4.472;2022-09-09T02:39:13;6.00;;;1.33;;
23714;SDS011;12036;50.858;4.472;2022-09-09T02:41:40;8.63;;;1.60;;
23714;SDS011;12036;50.858;4.472;2022-09-09T02:44:13;6.05;;;1.55;;
23714;SDS011;12036;50.858;4.472;2022-09-09T02:52:18;8.52;;;1.73;;
23714;SDS011;12036;50.858;4.472;2022-09-09T02:54:47;8.35;;;1.67;;
23714;SDS011;12036;50.858;4.472;2022-09-09T02:57:19;7.03;;;1.50;;
23714;SDS011;12036;50.858;4.472;2022-09-09T02:59:49;5.03;;;1.30;;
23714;SDS011;12036;50.858;4.472;2022-09-09T03:02:17;9.38;;;1.65;;
23714;SDS011;12036;50.858;4.472;2022-09-09T03:04:43;6.57;;;1.30;;
23714;SDS011;12036;50.858;4.472;2022-09-09T03:07:10;8.15;;;2.03;;
23714;SDS011;12036;50.858;4.472;2022-09-09T03:09:37;9.43;;;1.70;;
23714;SDS011;12036;50.858;4.472;2022-09-09T03:12:02;13.07;;;1.73;;
23714;SDS011;12036;50.858;4.472;2022-09-09T03:14:32;6.35;;;1.35;;
23714;SDS011;12036;50.858;4.472;2022-09-09T03:16:57;11.60;;;1.35;;
23714;SDS011;12036;50.858;4.472;2022-09-09T03:19:26;7.95;;;1.85;;
23714;SDS011;12036;50.858;4.472;2022-09-09T03:21:52;5.93;;;1.40;;
23714;SDS011;12036;50.858;4.472;2022-09-09T03:24:18;10.27;;;1.73;;
23714;SDS011;12036;50.858;4.472;2022-09-09T03:26:44;6.00;;;1.67;;
23714;SDS011;12036;50.858;4.472;2022-09-09T03:29:10;10.95;;;1.70;;
23714;SDS011;12036;50.858;4.472;2022-09-09T03:31:37;8.90;;;2.03;;
23714;SDS011;12036;50.858;4.472;2022-09-09T03:34:03;8.75;;;2.03;;
23714;SDS011;12036;50.858;4.472;2022-09-09T03:36:29;4.90;;;1.40;;
23714;SDS011;12036;50.858;4.472;2022-09-09T03:38:56;8.73;;;1.92;;
23714;SDS011;12036;50.858;4.472;2022-09-09T03:41:22;8.15;;;1.77;;
23714;SDS011;12036;50.858;4.472;2022-09-09T03:43:49;8.63;;;1.77;;
23714;SDS011;12036;50.858;4.472;2022-09-09T03:46:16;10.50;;;1.70;;
23714;SDS011;12036;50.858;4.472;2022-09-09T03:48:43;12.43;;;1.90;;
23714;SDS011;12036;50.858;4.472;2022-09-09T03:51:09;9.07;;;2.03;;
23714;SDS011;12036;50.858;4.472;2022-09-09T03:53:35;5.30;;;1.40;;
23714;SDS011;12036;50.858;4.472;2022-09-09T03:56:03;5.97;;;1.75;;
23714;SDS011;12036;50.858;4.472;2022-09-09T03:58:31;10.85;;;2.08;;
23714;SDS011;12036;50.858;4.472;2022-09-09T04:01:08;11.48;;;1.73;;
23714;SDS011;12036;50.858;4.472;2022-09-09T04:03:38;5.18;;;1.38;;
23714;SDS011;12036;50.858;4.472;2022-09-09T04:06:04;15.20;;;2.17;;
23714;SDS011;12036;50.858;4.472;2022-09-09T04:08:34;11.57;;;2.22;;
23714;SDS011;12036;50.858;4.472;2022-09-09T04:11:01;6.65;;;1.52;;
23714;SDS011;12036;50.858;4.472;2022-09-09T04:13:30;6.30;;;1.63;;
23714;SDS011;12036;50.858;4.472;2022-09-09T04:15:57;9.73;;;1.60;;
23714;SDS011;12036;50.858;4.472;2022-09-09T04:18:24;8.10;;;1.50;;
23714;SDS011;12036;50.858;4.472;2022-09-09T04:20:51;8.13;;;1.88;;
23714;SDS011;12036;50.858;4.472;2022-09-09T04:23:18;4.72;;;1.63;;
23714;SDS011;12036;50.858;4.472;2022-09-09T04:25:45;4.13;;;1.88;;
23714;SDS011;12036;50.858;4.472;2022-09-09T04:28:13;12.10;;;1.60;;
23714;SDS011;12036;50.858;4.472;2022-09-09T04:30:39;10.82;;;2.40;;
23714;SDS011;12036;50.858;4.472;2022-09-09T04:33:05;5.30;;;1.70;;
23714;SDS011;12036;50.858;4.472;2022-09-09T04:35:32;7.38;;;1.60;;
23714;SDS011;12036;50.858;4.472;2022-09-09T04:37:58;5.30;;;1.67;;
23714;SDS011;12036;50.858;4.472;2022-09-09T04:40:24;8.00;;;1.88;;
23714;SDS011;12036;50.858;4.472;2022-09-09T04:42:50;13.13;;;2.33;;
23714;SDS011;12036;50.858;4.472;2022-09-09T04:45:16;8.48;;;1.67;;
23714;SDS011;12036;50.858;4.472;2022-09-09T04:47:41;10.27;;;2.25;;
23714;SDS011;12036;50.858;4.472;2022-09-09T04:50:07;8.40;;;1.90;;
23714;SDS011;12036;50.858;4.472;2022-09-09T04:52:36;9.27;;;2.05;;
23714;SDS011;12036;50.858;4.472;2022-09-09T04:55:05;13.48;;;2.08;;
23714;SDS011;12036;50.858;4.472;2022-09-09T04:57:31;12.07;;;2.17;;
23714;SDS011;12036;50.858;4.472;2022-09-09T04:59:58;10.82;;;2.30;;
23714;SDS011;12036;50.858;4.472;2022-09-09T05:02:25;12.48;;;2.80;;
23714;SDS011;12036;50.858;4.472;2022-09-09T05:04:51;5.15;;;1.70;;
23714;SDS011;12036;50.858;4.472;2022-09-09T05:07:23;7.63;;;2.20;;
23714;SDS011;12036;50.858;4.472;2022-09-09T05:09:49;8.98;;;2.28;;
23714;SDS011;12036;50.858;4.472;2022-09-09T05:12:15;8.77;;;1.88;;
23714;SDS011;12036;50.858;4.472;2022-09-09T05:14:42;6.95;;;2.00;;
23714;SDS011;12036;50.858;4.472;2022-09-09T05:17:08;10.40;;;2.40;;
23714;SDS011;12036;50.858;4.472;2022-09-09T05:19:34;11.82;;;2.42;;
23714;SDS011;12036;50.858;4.472;2022-09-09T05:22:03;9.43;;;2.25;;
23714;SDS011;12036;50.858;4.472;2022-09-09T05:24:30;8.80;;;2.22;;
23714;SDS011;12036;50.858;4.472;2022-09-09T05:26:58;17.55;;;2.97;;
23714;SDS011;12036;50.858;4.472;2022-09-09T05:29:24;10.85;;;2.47;;
23714;SDS011;12036;50.858;4.472;2022-09-09T05:31:51;12.15;;;2.58;;
23714;SDS011;12036;50.858;4.472;2022-09-09T05:34:17;15.85;;;2.70;;
23714;SDS011;12036;50.858;4.472;2022-09-09T05:36:42;9.23;;;2.15;;
23714;SDS011;12036;50.858;4.472;2022-09-09T05:39:08;11.48;;;2.45;;
23714;SDS011;12036;50.858;4.472;2022-09-09T05:41:34;13.43;;;2.53;;
23714;SDS011;12036;50.858;4.472;2022-09-09T05:44:00;12.20;;;2.40;;
23714;SDS011;12036;50.858;4.472;2022-09-09T05:46:30;15.00;;;2.70;;
23714;SDS011;12036;50.858;4.472;2022-09-09T05:48:56;9.25;;;2.70;;
23714;SDS011;12036;50.858;4.472;2022-09-09T05:51:26;8.73;;;2.03;;
23714;SDS011;12036;50.858;4.472;2022-09-09T05:53:54;13.82;;;2.67;;
23714;SDS011;12036;50.858;4.472;2022-09-09T05:56:24;10.80;;;2.28;;
23714;SDS011;12036;50.858;4.472;2022-09-09T05:58:51;10.85;;;2.15;;
23714;SDS011;12036;50.858;4.472;2022-09-09T06:01:22;10.95;;;2.33;;
23714;SDS011;12036;50.858;4.472;2022-09-09T06:03:50;11.10;;;2.63;;
23714;SDS011;12036;50.858;4.472;2022-09-09T06:06:20;8.27;;;2.05;;
23714;SDS011;12036;50.858;4.472;2022-09-09T06:08:48;12.52;;;1.88;;
23714;SDS011;12036;50.858;4.472;2022-09-09T06:11:17;6.45;;;2.05;;
23714;SDS011;12036;50.858;4.472;2022-09-09T06:13:47;5.32;;;1.88;;
23714;SDS011;12036;50.858;4.472;2022-09-09T06:16:16;9.07;;;2.42;;
23714;SDS011;12036;50.858;4.472;2022-09-09T06:18:43;8.90;;;2.28;;
23714;SDS011;12036;50.858;4.472;2022-09-09T06:21:11;14.40;;;2.70;;
23714;SDS011;12036;50.858;4.472;2022-09-09T06:23:52;8.32;;;2.13;;
23714;SDS011;12036;50.858;4.472;2022-09-09T06:26:24;10.85;;;2.30;;
23714;SDS011;12036;50.858;4.472;2022-09-09T06:28:52;11.95;;;2.40;;
23714;SDS011;12036;50.858;4.472;2022-09-09T06:31:22;10.27;;;1.95;;
23714;SDS011;12036;50.858;4.472;2022-09-09T06:33:50;9.60;;;1.90;;
23714;SDS011;12036;50.858;4.472;2022-09-09T06:36:17;9.13;;;2.38;;
23714;SDS011;12036;50.858;4.472;2022-09-09T06:38:51;7.20;;;1.95;;
23714;SDS011;12036;50.858;4.472;2022-09-09T06:41:17;13.20;;;2.03;;
23714;SDS011;12036;50.858;4.472;2022-09-09T06:43:45;6.88;;;2.42;;
23714;SDS011;12036;50.858;4.472;2022-09-09T06:46:18;9.02;;;2.00;;
23714;SDS011;12036;50.858;4.472;2022-09-09T06:48:54;8.27;;;2.40;;
23714;SDS011;12036;50.858;4.472;2022-09-09T06:51:24;13.52;;;2.10;;
23714;SDS011;12036;50.858;4.472;2022-09-09T06:53:55;7.38;;;2.35;;
23714;SDS011;12036;50.858;4.472;2022-09-09T06:56:24;6.15;;;1.73;;
23714;SDS011;12036;50.858;4.472;2022-09-09T06:58:55;15.68;;;2.00;;
23714;SDS011;12036;50.858;4.472;2022-09-09T07:01:23;12.38;;;1.95;;
23714;SDS011;12036;50.858;4.472;2022-09-09T07:03:51;8.88;;;1.67;;
23714;SDS011;12036;50.858;4.472;2022-09-09T07:06:23;9.20;;;2.70;;
23714;SDS011;12036;50.858;4.472;2022-09-09T07:08:54;8.52;;;1.90;;
23714;SDS011;12036;50.858;4.472;2022-09-09T07:11:21;11.65;;;2.10;;
23714;SDS011;12036;50.858;4.472;2022-09-09T07:13:48;10.32;;;2.15;;
23714;SDS011;12036;50.858;4.472;2022-09-09T07:16:17;14.18;;;2.03;;
23714;SDS011;12036;50.858;4.472;2022-09-09T07:18:45;11.23;;;2.25;;
23714;SDS011;12036;50.858;4.472;2022-09-09T07:21:11;6.32;;;1.52;;
23714;SDS011;12036;50.858;4.472;2022-09-09T07:23:38;5.78;;;1.83;;
23714;SDS011;12036;50.858;4.472;2022-09-09T07:26:09;6.95;;;1.75;;
23714;SDS011;12036;50.858;4.472;2022-09-09T07:28:35;10.02;;;1.85;;
23714;SDS011;12036;50.858;4.472;2022-09-09T07:31:01;10.50;;;1.90;;
23714;SDS011;12036;50.858;4.472;2022-09-09T07:33:28;11.45;;;2.05;;
23714;SDS011;12036;50.858;4.472;2022-09-09T07:36:09;10.82;;;2.00;;
23714;SDS011;12036;50.858;4.472;2022-09-09T07:38:43;12.52;;;2.03;;
23714;SDS011;12036;50.858;4.472;2022-09-09T07:41:11;6.85;;;1.83;;
23714;SDS011;12036;50.858;4.472;2022-09-09T07:43:39;8.05;;;1.70;;
23714;SDS011;12036;50.858;4.472;2022-09-09T07:46:07;9.15;;;2.08;;
23714;SDS011;12036;50.858;4.472;2022-09-09T07:48:33;12.80;;;1.80;;
23714;SDS011;12036;50.858;4.472;2022-09-09T07:51:04;5.90;;;1.70;;
23714;SDS011;12036;50.858;4.472;2022-09-09T07:53:45;6.40;;;1.77;;
23714;SDS011;12036;50.858;4.472;2022-09-09T07:56:12;7.03;;;1.98;;
23714;SDS011;12036;50.858;4.472;2022-09-09T07:58:42;13.40;;;2.00;;
23714;SDS011;12036;50.858;4.472;2022-09-09T08:01:14;9.20;;;2.00;;
23714;SDS011;12036;50.858;4.472;2022-09-09T08:03:42;9.50;;;2.38;;
23714;SDS011;12036;50.858;4.472;2022-09-09T08:06:09;14.52;;;2.35;;
23714;SDS011;12036;50.858;4.472;2022-09-09T08:08:37;9.48;;;2.25;;
23714;SDS011;12036;50.858;4.472;2022-09-09T08:11:10;13.82;;;2.20;;
23714;SDS011;12036;50.858;4.472;2022-09-09T08:13:38;6.78;;;2.10;;
23714;SDS011;12036;50.858;4.472;2022-09-09T08:16:07;10.88;;;1.95;;
23714;SDS011;12036;50.858;4.472;2022-09-09T08:18:38;8.70;;;2.03;;
23714;SDS011;12036;50.858;4.472;2022-09-09T08:21:08;10.82;;;2.45;;
23714;SDS011;12036;50.858;4.472;2022-09-09T08:23:37;8.88;;;2.38;;
23714;SDS011;12036;50.858;4.472;2022-09-09T08:26:09;7.50;;;2.03;;
23714;SDS011;12036;50.858;4.472;2022-09-09T08:28:40;9.88;;;2.05;;
23714;SDS011;12036;50.858;4.472;2022-09-09T08:31:07;9.55;;;2.03;;
23714;SDS011;12036;50.858;4.472;2022-09-09T08:33:43;12.82;;;2.28;;
23714;SDS011;12036;50.858;4.472;2022-09-09T08:36:12;13.15;;;2.10;;
23714;SDS011;12036;50.858;4.472;2022-09-09T08:38:40;9.57;;;1.88;;
23714;SDS011;12036;50.858;4.472;2022-09-09T08:54:48;6.07;;;1.67;;
23714;SDS011;12036;50.858;4.472;2022-09-09T08:57:18;10.13;;;2.08;;
23714;SDS011;12036;50.858;4.472;2022-09-09T08:59:51;6.88;;;1.70;;
23714;SDS011;12036;50.858;4.472;2022-09-09T09:05:18;5.20;;;1.70;;
23714;SDS011;12036;50.858;4.472;2022-09-09T09:10:48;8.63;;;2.25;;
23714;SDS011;12036;50.858;4.472;2022-09-09T09:13:19;7.18;;;2.00;;
23714;SDS011;12036;50.858;4.472;2022-09-09T09:16:00;7.90;;;1.80;;
23714;SDS011;12036;50.858;4.472;2022-09-09T09:18:34;9.88;;;1.95;;
23714;SDS011;12036;50.858;4.472;2022-09-09T09:24:05;9.85;;;2.30;;
23714;SDS011;12036;50.858;4.472;2022-09-09T09:26:34;8.60;;;1.65;;
23714;SDS011;12036;50.858;4.472;2022-09-09T09:29:00;9.20;;;2.10;;
23714;SDS011;12036;50.858;4.472;2022-09-09T09:31:42;8.95;;;1.95;;
23714;SDS011;12036;50.858;4.472;2022-09-09T09:34:14;7.95;;;1.90;;
23714;SDS011;12036;50.858;4.472;2022-09-09T09:36:41;6.10;;;1.90;;
23714;SDS011;12036;50.858;4.472;2022-09-09T09:39:27;6.45;;;1.88;;
23714;SDS011;12036;50.858;4.472;2022-09-09T09:41:55;5.28;;;2.38;;
23714;SDS011;12036;50.858;4.472;2022-09-09T09:44:22;11.13;;;2.20;;
23714;SDS011;12036;50.858;4.472;2022-09-09T09:46:51;5.78;;;1.98;;
23714;SDS011;12036;50.858;4.472;2022-09-09T09:49:17;8.52;;;1.92;;
23714;SDS011;12036;50.858;4.472;2022-09-09T09:51:43;9.88;;;2.05;;
23714;SDS011;12036;50.858;4.472;2022-09-09T09:54:14;7.32;;;2.10;;
23714;SDS011;12036;50.858;4.472;2022-09-09T09:56:52;9.55;;;2.15;;
23714;SDS011;12036;50.858;4.472;2022-09-09T09:59:39;10.50;;;2.40;;
23714;SDS011;12036;50.858;4.472;2022-09-09T10:02:23;8.13;;;2.00;;
23714;SDS011;12036;50.858;4.472;2022-09-09T10:05:02;12.18;;;2.30;;
23714;SDS011;12036;50.858;4.472;2022-09-09T10:07:29;10.68;;;2.35;;
23714;SDS011;12036;50.858;4.472;2022-09-09T10:09:55;7.70;;;2.30;;
23714;SDS011;12036;50.858;4.472;2022-09-09T10:17:55;6.68;;;2.35;;
23714;SDS011;12036;50.858;4.472;2022-09-09T10:34:12;6.93;;;2.53;;
23714;SDS011;12036;50.858;4.472;2022-09-09T10:36:50;7.15;;;2.10;;
23714;SDS011;12036;50.858;4.472;2022-09-09T10:42:06;8.32;;;1.98;;
23714;SDS011;12036;50.858;4.472;2022-09-09T10:50:47;7.43;;;1.80;;
23714;SDS011;12036;50.858;4.472;2022-09-09T10:53:14;11.70;;;1.95;;
23714;SDS011;12036;50.858;4.472;2022-09-09T10:55:58;10.20;;;2.00;;
23714;SDS011;12036;50.858;4.472;2022-09-09T10:59:04;9.55;;;1.67;;
23714;SDS011;12036;50.858;4.472;2022-09-09T11:01:40;10.10;;;2.05;;
23714;SDS011;12036;50.858;4.472;2022-09-09T11:04:13;5.53;;;1.45;;
23714;SDS011;12036;50.858;4.472;2022-09-09T11:07:02;7.15;;;1.80;;
23714;SDS011;12036;50.858;4.472;2022-09-09T11:09:35;4.80;;;1.52;;
23714;SDS011;12036;50.858;4.472;2022-09-09T11:12:06;5.18;;;1.20;;
23714;SDS011;12036;50.858;4.472;2022-09-09T11:15:23;6.15;;;1.75;;
23714;SDS011;12036;50.858;4.472;2022-09-09T11:17:36;6.43;;;1.50;;
23714;SDS011;12036;50.858;4.472;2022-09-09T11:20:11;4.63;;;1.63;;
23714;SDS011;12036;50.858;4.472;2022-09-09T11:38:50;6.22;;;1.40;;
23714;SDS011;12036;50.858;4.472;2022-09-09T11:41:19;8.07;;;1.50;;
23714;SDS011;12036;50.858;4.472;2022-09-09T11:43:52;4.05;;;1.52;;
23714;SDS011;12036;50.858;4.472;2022-09-09T11:46:19;4.90;;;1.30;;
23714;SDS011;12036;50.858;4.472;2022-09-09T11:49:03;7.25;;;1.55;;
23714;SDS011;12036;50.858;4.472;2022-09-09T11:51:32;3.65;;;1.40;;
23714;SDS011;12036;50.858;4.472;2022-09-09T11:54:01;4.75;;;1.33;;
23714;SDS011;12036;50.858;4.472;2022-09-09T11:56:47;4.43;;;1.40;;
23714;SDS011;12036;50.858;4.472;2022-09-09T11:59:20;4.95;;;1.75;;
23714;SDS011;12036;50.858;4.472;2022-09-09T12:01:59;5.40;;;1.30;;
23714;SDS011;12036;50.858;4.472;2022-09-09T12:04:33;4.80;;;1.35;;
23714;SDS011;12036;50.858;4.472;2022-09-09T12:14:43;6.80;;;1.55;;
23714;SDS011;12036;50.858;4.472;2022-09-09T12:17:24;5.20;;;1.55;;
23714;SDS011;12036;50.858;4.472;2022-09-09T12:30:32;4.72;;;1.38;;
23714;SDS011;12036;50.858;4.472;2022-09-09T12:33:19;4.25;;;0.95;;
23714;SDS011;12036;50.858;4.472;2022-09-09T12:35:50;4.38;;;1.13;;
23714;SDS011;12036;50.858;4.472;2022-09-09T12:38:30;4.47;;;1.23;;
23714;SDS011;12036;50.858;4.472;2022-09-09T12:40:59;5.13;;;1.30;;
23714;SDS011;12036;50.858;4.472;2022-09-09T12:43:26;3.00;;;1.00;;
23714;SDS011;12036;50.858;4.472;2022-09-09T12:45:54;6.82;;;1.10;;
23714;SDS011;12036;50.858;4.472;2022-09-09T12:48:31;5.15;;;0.90;;
23714;SDS011;12036;50.858;4.472;2022-09-09T12:50:57;4.78;;;1.13;;
23714;SDS011;12036;50.858;4.472;2022-09-09T12:53:25;5.20;;;0.80;;
23714;SDS011;12036;50.858;4.472;2022-09-09T12:56:05;8.80;;;1.10;;
23714;SDS011;12036;50.858;4.472;2022-09-09T12:58:33;3.75;;;0.98;;
23714;SDS011;12036;50.858;4.472;2022-09-09T13:01:01;1.73;;;0.88;;
23714;SDS011;12036;50.858;4.472;2022-09-09T13:03:31;6.05;;;0.90;;
23714;SDS011;12036;50.858;4.472;2022-09-09T13:05:59;3.72;;;0.95;;
23714;SDS011;12036;50.858;4.472;2022-09-09T13:08:37;4.50;;;1.08;;
23714;SDS011;12036;50.858;4.472;2022-09-09T13:11:04;5.00;;;0.80;;
23714;SDS011;12036;50.858;4.472;2022-09-09T13:13:35;4.25;;;1.00;;
23714;SDS011;12036;50.858;4.472;2022-09-09T13:16:03;3.08;;;1.02;;
23714;SDS011;12036;50.858;4.472;2022-09-09T13:18:33;5.72;;;1.17;;
23714;SDS011;12036;50.858;4.472;2022-09-09T13:21:01;3.47;;;1.13;;
23714;SDS011;12036;50.858;4.472;2022-09-09T13:23:32;7.50;;;1.15;;
23714;SDS011;12036;50.858;4.472;2022-09-09T13:26:06;3.33;;;0.80;;
23714;SDS011;12036;50.858;4.472;2022-09-09T13:28:55;4.28;;;0.90;;
23714;SDS011;12036;50.858;4.472;2022-09-09T13:31:33;3.53;;;1.00;;
23714;SDS011;12036;50.858;4.472;2022-09-09T13:34:11;5.40;;;1.02;;
23714;SDS011;12036;50.858;4.472;2022-09-09T13:36:39;5.25;;;1.10;;
23714;SDS011;12036;50.858;4.472;2022-09-09T13:39:12;6.05;;;1.00;;
23714;SDS011;12036;50.858;4.472;2022-09-09T13:41:43;3.70;;;1.02;;
23714;SDS011;12036;50.858;4.472;2022-09-09T13:44:20;3.05;;;1.00;;
23714;SDS011;12036;50.858;4.472;2022-09-09T13:47:02;0.85;;;0.60;;
23714;SDS011;12036;50.858;4.472;2022-09-09T13:49:31;3.70;;;0.90;;
23714;SDS011;12036;50.858;4.472;2022-09-09T13:54:32;2.08;;;0.55;;
23714;SDS011;12036;50.858;4.472;2022-09-09T13:56:58;5.43;;;0.90;;
23714;SDS011;12036;50.858;4.472;2022-09-09T13:59:24;5.88;;;0.90;;
23714;SDS011;12036;50.858;4.472;2022-09-09T14:01:50;7.20;;;0.80;;
23714;SDS011;12036;50.858;4.472;2022-09-09T14:04:17;3.72;;;0.80;;
23714;SDS011;12036;50.858;4.472;2022-09-09T14:06:43;2.55;;;0.70;;
23714;SDS011;12036;50.858;4.472;2022-09-09T14:09:12;5.30;;;1.05;;
23714;SDS011;12036;50.858;4.472;2022-09-09T14:11:39;2.85;;;0.80;;
23714;SDS011;12036;50.858;4.472;2022-09-09T14:14:05;7.93;;;1.08;;
23714;SDS011;12036;50.858;4.472;2022-09-09T14:16:31;1.92;;;0.80;;
23714;SDS011;12036;50.858;4.472;2022-09-09T14:18:57;2.75;;;0.98;;
23714;SDS011;12036;50.858;4.472;2022-09-09T14:21:24;2.15;;;0.80;;
23714;SDS011;12036;50.858;4.472;2022-09-09T14:23:50;1.02;;;0.60;;
23714;SDS011;12036;50.858;4.472;2022-09-09T14:26:17;2.03;;;1.10;;
23714;SDS011;12036;50.858;4.472;2022-09-09T14:28:46;3.15;;;0.80;;
23714;SDS011;12036;50.858;4.472;2022-09-09T14:31:12;3.10;;;1.00;;
23714;SDS011;12036;50.858;4.472;2022-09-09T14:33:38;3.20;;;1.02;;
23714;SDS011;12036;50.858;4.472;2022-09-09T14:36:04;5.30;;;1.00;;
23714;SDS011;12036;50.858;4.472;2022-09-09T14:38:35;2.95;;;0.85;;
23714;SDS011;12036;50.858;4.472;2022-09-09T14:41:06;3.17;;;1.08;;
23714;SDS011;12036;50.858;4.472;2022-09-09T14:43:39;8.60;;;1.10;;
23714;SDS011;12036;50.858;4.472;2022-09-09T14:46:06;3.53;;;1.00;;
23714;SDS011;12036;50.858;4.472;2022-09-09T14:48:31;3.80;;;0.98;;
23714;SDS011;12036;50.858;4.472;2022-09-09T14:51:04;2.90;;;0.90;;
23714;SDS011;12036;50.858;4.472;2022-09-09T14:53:30;3.30;;;0.77;;
23714;SDS011;12036;50.858;4.472;2022-09-09T14:56:03;2.00;;;0.80;;
23714;SDS011;12036;50.858;4.472;2022-09-09T14:58:35;3.88;;;0.93;;
23714;SDS011;12036;50.858;4.472;2022-09-09T15:03:35;5.28;;;0.70;;
23714;SDS011;12036;50.858;4.472;2022-09-09T15:06:05;2.35;;;0.90;;
23714;SDS011;12036;50.858;4.472;2022-09-09T15:08:36;1.70;;;0.75;;
23714;SDS011;12036;50.858;4.472;2022-09-09T15:11:03;5.70;;;1.08;;
23714;SDS011;12036;50.858;4.472;2022-09-09T15:13:29;3.88;;;0.82;;
23714;SDS011;12036;50.858;4.472;2022-09-09T15:15:55;6.03;;;1.40;;
23714;SDS011;12036;50.858;4.472;2022-09-09T15:18:27;6.15;;;0.90;;
23714;SDS011;12036;50.858;4.472;2022-09-09T15:20:54;3.10;;;0.82;;
23714;SDS011;12036;50.858;4.472;2022-09-09T15:23:19;1.88;;;0.80;;
23714;SDS011;12036;50.858;4.472;2022-09-09T15:25:54;2.47;;;0.90;;
23714;SDS011;12036;50.858;4.472;2022-09-09T15:28:21;3.40;;;0.90;;
23714;SDS011;12036;50.858;4.472;2022-09-09T15:30:51;4.25;;;0.73;;
23714;SDS011;12036;50.858;4.472;2022-09-09T15:33:18;2.43;;;0.87;;
23714;SDS011;12036;50.858;4.472;2022-09-09T15:35:45;5.38;;;1.77;;
23714;SDS011;12036;50.858;4.472;2022-09-09T15:38:10;5.30;;;0.90;;
23714;SDS011;12036;50.858;4.472;2022-09-09T15:40:38;2.92;;;0.95;;
23714;SDS011;12036;50.858;4.472;2022-09-09T15:43:05;3.63;;;0.90;;
23714;SDS011;12036;50.858;4.472;2022-09-09T15:45:31;4.07;;;1.00;;
23714;SDS011;12036;50.858;4.472;2022-09-09T15:47:58;5.32;;;1.35;;
23714;SDS011;12036;50.858;4.472;2022-09-09T15:50:27;5.50;;;0.90;;
23714;SDS011;12036;50.858;4.472;2022-09-09T15:52:55;4.45;;;0.90;;
23714;SDS011;12036;50.858;4.472;2022-09-09T15:55:21;4.63;;;1.27;;
23714;SDS011;12036;50.858;4.472;2022-09-09T15:57:47;2.67;;;1.10;;
23714;SDS011;12036;50.858;4.472;2022-09-09T16:00:13;3.20;;;1.10;;
23714;SDS011;12036;50.858;4.472;2022-09-09T16:02:39;9.70;;;1.40;;
23714;SDS011;12036;50.858;4.472;2022-09-09T16:05:05;4.68;;;1.27;;
23714;SDS011;12036;50.858;4.472;2022-09-09T16:07:31;2.40;;;0.85;;
23714;SDS011;12036;50.858;4.472;2022-09-09T16:09:57;1.52;;;0.80;;
23714;SDS011;12036;50.858;4.472;2022-09-09T16:12:22;5.03;;;1.20;;
23714;SDS011;12036;50.858;4.472;2022-09-09T16:14:48;3.65;;;1.00;;
23714;SDS011;12036;50.858;4.472;2022-09-09T16:17:13;3.47;;;1.00;;
23714;SDS011;12036;50.858;4.472;2022-09-09T16:19:40;4.35;;;1.15;;
23714;SDS011;12036;50.858;4.472;2022-09-09T16:22:06;3.30;;;1.00;;
23714;SDS011;12036;50.858;4.472;2022-09-09T16:24:31;3.53;;;1.10;;
23714;SDS011;12036;50.858;4.472;2022-09-09T16:26:58;4.38;;;1.10;;
23714;SDS011;12036;50.858;4.472;2022-09-09T16:29:23;3.13;;;1.13;;
23714;SDS011;12036;50.858;4.472;2022-09-09T16:31:52;4.22;;;1.13;;
23714;SDS011;12036;50.858;4.472;2022-09-09T16:34:19;5.28;;;1.30;;
23714;SDS011;12036;50.858;4.472;2022-09-09T16:36:45;4.85;;;1.10;;
23714;SDS011;12036;50.858;4.472;2022-09-09T16:39:12;4.47;;;1.40;;
23714;SDS011;12036;50.858;4.472;2022-09-09T16:41:43;3.90;;;1.13;;
23714;SDS011;12036;50.858;4.472;2022-09-09T16:44:11;3.67;;;1.10;;
23714;SDS011;12036;50.858;4.472;2022-09-09T16:46:39;3.38;;;1.10;;
23714;SDS011;12036;50.858;4.472;2022-09-09T16:49:07;2.95;;;1.17;;
23714;SDS011;12036;50.858;4.472;2022-09-09T16:51:43;2.63;;;1.17;;
23714;SDS011;12036;50.858;4.472;2022-09-09T16:54:13;3.38;;;1.23;;
23714;SDS011;12036;50.858;4.472;2022-09-09T16:56:42;6.03;;;1.23;;
23714;SDS011;12036;50.858;4.472;2022-09-09T16:59:13;3.40;;;1.25;;
23714;SDS011;12036;50.858;4.472;2022-09-09T17:01:41;3.75;;;1.10;;
23714;SDS011;12036;50.858;4.472;2022-09-09T17:04:29;3.83;;;1.30;;
23714;SDS011;12036;50.858;4.472;2022-09-09T17:06:55;5.10;;;1.00;;
23714;SDS011;12036;50.858;4.472;2022-09-09T17:09:22;7.53;;;1.70;;
23714;SDS011;12036;50.858;4.472;2022-09-09T17:11:52;2.33;;;1.38;;
23714;SDS011;12036;50.858;4.472;2022-09-09T17:14:20;4.13;;;1.20;;
23714;SDS011;12036;50.858;4.472;2022-09-09T17:16:46;5.05;;;1.27;;
23714;SDS011;12036;50.858;4.472;2022-09-09T17:19:12;2.33;;;1.00;;